createdAt,value
2023-05-17T00:02:20.479Z,3.65
2023-05-17T00:04:48.842Z,3.75
2023-05-17T00:07:17.184Z,5.40
2023-05-17T00:09:45.446Z,4.35
2023-05-17T00:12:13.896Z,4.18
2023-05-17T00:14:42.442Z,4.30
2023-05-17T00:17:12.129Z,3.83
2023-05-17T00:19:40.955Z,3.60
2023-05-17T00:22:09.253Z,3.80
2023-05-17T00:24:38.332Z,3.90
2023-05-17T00:27:07.226Z,3.90
2023-05-17T00:29:35.756Z,3.70
2023-05-17T00:32:05.697Z,3.38
2023-05-17T00:34:35.876Z,3.65
2023-05-17T00:37:04.452Z,3.78
2023-05-17T00:39:32.849Z,3.90
2023-05-17T00:42:02.166Z,3.80
2023-05-17T00:44:30.866Z,3.60
2023-05-17T00:46:59.915Z,3.58
2023-05-17T00:49:28.372Z,4.00
2023-05-17T00:51:58.419Z,3.90
2023-05-17T00:54:27.315Z,3.83
2023-05-17T00:56:57.831Z,4.00
2023-05-17T00:59:28.026Z,3.78
2023-05-17T01:01:57.808Z,3.70
2023-05-17T01:04:36.066Z,3.58
2023-05-17T01:07:07.028Z,4.22
2023-05-17T01:09:35.839Z,4.25
2023-05-17T01:12:12.132Z,4.05
2023-05-17T01:14:50.221Z,4.05
2023-05-17T01:17:23.794Z,4.65
2023-05-17T01:20:12.974Z,4.20
2023-05-17T01:22:50.518Z,4.05
2023-05-17T01:25:30.911Z,4.28
2023-05-17T01:28:03.671Z,4.60
2023-05-17T01:30:35.096Z,4.00
2023-05-17T01:33:05.257Z,4.40
2023-05-17T01:35:33.819Z,4.25
2023-05-17T01:38:02.287Z,4.60
2023-05-17T01:40:36.757Z,4.32
2023-05-17T01:43:11.381Z,4.43
2023-05-17T01:45:45.512Z,4.75
2023-05-17T01:48:21.492Z,4.30
2023-05-17T01:50:52.981Z,4.50
2023-05-17T01:53:26.841Z,4.60
2023-05-17T01:56:01.996Z,4.40
2023-05-17T01:58:33.342Z,4.47
2023-05-17T02:01:03.474Z,4.47
2023-05-17T02:03:31.837Z,4.80
2023-05-17T02:06:00.733Z,4.43
2023-05-17T02:08:29.086Z,4.47
2023-05-17T02:10:58.542Z,4.22
2023-05-17T02:13:27.136Z,4.65
2023-05-17T02:16:00.924Z,4.68
2023-05-17T02:18:30.335Z,4.47
2023-05-17T02:20:58.831Z,4.50
2023-05-17T02:23:27.539Z,5.13
2023-05-17T02:25:56.098Z,4.43
2023-05-17T02:28:24.566Z,4.63
2023-05-17T02:30:53.190Z,5.25
2023-05-17T02:33:23.625Z,4.30
2023-05-17T02:35:52.032Z,4.57
2023-05-17T02:38:21.900Z,4.68
2023-05-17T02:40:50.173Z,4.80
2023-05-17T02:43:18.567Z,4.57
2023-05-17T02:45:46.883Z,4.53
2023-05-17T02:48:15.780Z,4.10
2023-05-17T02:50:45.565Z,4.50
2023-05-17T02:53:14.327Z,4.28
2023-05-17T02:55:43.030Z,4.47
2023-05-17T02:58:11.559Z,4.72
2023-05-17T03:00:39.881Z,4.75
2023-05-17T03:03:08.682Z,4.72
2023-05-17T03:05:37.621Z,4.65
2023-05-17T03:08:07.646Z,4.78
2023-05-17T03:10:36.104Z,4.28
2023-05-17T03:13:05.189Z,4.30
2023-05-17T03:15:37.497Z,4.50
2023-05-17T03:18:06.786Z,4.03
2023-05-17T03:20:35.917Z,4.50
2023-05-17T03:23:04.727Z,4.63
2023-05-17T03:25:36.676Z,4.60
2023-05-17T03:28:06.365Z,4.60
2023-05-17T03:30:34.834Z,4.40
2023-05-17T03:33:06.445Z,4.40
2023-05-17T03:35:36.416Z,4.40
2023-05-17T03:38:08.316Z,4.20
2023-05-17T03:40:38.477Z,3.92
2023-05-17T03:43:07.423Z,4.43
2023-05-17T03:45:36.777Z,4.68
2023-05-17T03:48:05.799Z,4.50
2023-05-17T03:50:35.140Z,4.45
2023-05-17T03:53:03.591Z,4.70
2023-05-17T03:55:32.931Z,4.70
2023-05-17T03:58:03.068Z,4.90
2023-05-17T04:00:31.900Z,4.80
2023-05-17T04:03:05.568Z,5.20
2023-05-17T04:05:34.864Z,4.82
2023-05-17T04:08:04.156Z,4.97
2023-05-17T04:10:32.575Z,5.75
2023-05-17T04:13:02.715Z,5.47
2023-05-17T04:15:31.140Z,5.03
2023-05-17T04:18:00.379Z,4.95
2023-05-17T04:20:29.022Z,4.93
2023-05-17T04:22:57.860Z,4.25
2023-05-17T04:25:29.230Z,4.57
2023-05-17T04:27:58.966Z,4.40
2023-05-17T04:30:28.687Z,4.75
2023-05-17T04:32:57.068Z,4.63
2023-05-17T04:35:25.872Z,5.07
2023-05-17T04:37:56.596Z,4.68
2023-05-17T04:40:24.956Z,5.10
2023-05-17T04:42:53.497Z,5.18
2023-05-17T04:45:22.309Z,4.60
2023-05-17T04:47:52.874Z,4.90
2023-05-17T04:50:23.521Z,5.10
2023-05-17T04:52:52.485Z,5.25
2023-05-17T04:55:21.296Z,5.03
2023-05-17T04:57:50.117Z,4.72
2023-05-17T05:00:20.940Z,5.10
2023-05-17T05:02:57.471Z,4.82
2023-05-17T05:05:27.043Z,4.95
2023-05-17T05:07:56.232Z,4.78
2023-05-17T05:10:24.976Z,4.90
2023-05-17T05:12:53.772Z,4.95
2023-05-17T05:15:22.504Z,4.80
2023-05-17T05:17:57.865Z,5.00
2023-05-17T05:20:27.947Z,4.90
2023-05-17T05:22:58.841Z,5.05
2023-05-17T05:25:29.204Z,4.72
2023-05-17T05:27:57.810Z,4.60
2023-05-17T05:30:27.114Z,7.30
2023-05-17T05:32:59.047Z,7.25
2023-05-17T05:38:10.715Z,5.20
2023-05-17T05:40:39.313Z,4.53
2023-05-17T05:43:09.704Z,4.97
2023-05-17T05:45:38.297Z,5.38
2023-05-17T05:48:08.986Z,5.15
2023-05-17T05:50:37.861Z,5.05
2023-05-17T05:53:18.970Z,4.85
2023-05-17T05:55:53.680Z,4.47
2023-05-17T05:58:22.804Z,4.55
2023-05-17T06:00:52.357Z,7.38
2023-05-17T06:03:44.593Z,6.35
2023-05-17T06:06:13.587Z,4.80
2023-05-17T06:08:42.099Z,4.95
2023-05-17T06:11:13.446Z,4.50
2023-05-17T06:13:42.069Z,4.80
2023-05-17T06:16:10.472Z,3.90
2023-05-17T06:18:39.227Z,4.00
2023-05-17T06:21:09.301Z,4.35
2023-05-17T06:23:38.067Z,4.57
2023-05-17T06:26:10.418Z,4.68
2023-05-17T06:28:39.327Z,6.10
2023-05-17T06:31:07.729Z,5.60
2023-05-17T06:33:36.327Z,4.72
2023-05-17T06:36:05.068Z,4.05
2023-05-17T06:38:36.572Z,4.22
2023-05-17T06:41:04.912Z,4.10
2023-05-17T06:43:35.634Z,3.70
2023-05-17T06:46:05.771Z,4.10
2023-05-17T06:48:34.694Z,3.85
2023-05-17T06:51:03.167Z,4.18
2023-05-17T06:53:31.685Z,4.05
2023-05-17T06:56:01.538Z,4.13
2023-05-17T06:58:30.211Z,4.13
2023-05-17T07:00:58.572Z,4.00
2023-05-17T07:03:27.343Z,4.03
2023-05-17T07:05:55.779Z,3.83
2023-05-17T07:08:24.598Z,3.65
2023-05-17T07:10:53.129Z,3.90
2023-05-17T07:13:23.155Z,3.90
2023-05-17T07:15:52.005Z,3.78
2023-05-17T07:18:20.584Z,4.20
2023-05-17T07:20:49.424Z,13.65
2023-05-17T07:23:17.726Z,5.97
2023-05-17T07:25:46.740Z,6.97
2023-05-17T07:28:15.121Z,6.07
2023-05-17T07:30:48.461Z,5.05
2023-05-17T07:33:16.921Z,4.78
2023-05-17T07:35:45.281Z,4.40
2023-05-17T07:38:13.592Z,11.30
2023-05-17T07:40:42.619Z,6.35
2023-05-17T07:43:11.402Z,4.22
2023-05-17T07:45:40.366Z,4.35
2023-05-17T07:48:13.888Z,4.22
2023-05-17T07:50:44.184Z,3.97
2023-05-17T07:53:12.612Z,3.80
2023-05-17T07:55:41.852Z,3.75
2023-05-17T07:58:11.822Z,4.55
2023-05-17T08:00:41.109Z,4.55
2023-05-17T08:03:09.609Z,3.85
2023-05-17T08:05:39.425Z,4.50
2023-05-17T08:08:07.881Z,4.30
2023-05-17T08:10:37.897Z,4.30
2023-05-17T08:13:07.137Z,4.68
2023-05-17T08:15:35.626Z,4.60
2023-05-17T08:18:04.974Z,14.98
2023-05-17T08:20:33.557Z,4.88
2023-05-17T08:23:03.289Z,3.90
2023-05-17T08:25:31.958Z,4.47
2023-05-17T08:28:00.388Z,4.50
2023-05-17T08:30:29.581Z,4.72
2023-05-17T08:32:58.118Z,7.40
2023-05-17T08:35:28.922Z,9.45
2023-05-17T08:37:57.494Z,5.40
2023-05-17T08:40:28.773Z,4.20
2023-05-17T08:42:58.043Z,4.13
2023-05-17T08:45:29.319Z,4.00
2023-05-17T08:47:58.378Z,3.80
2023-05-17T08:50:30.363Z,4.07
2023-05-17T08:53:00.078Z,3.95
2023-05-17T08:55:33.048Z,4.35
2023-05-17T08:58:02.387Z,20.42
2023-05-17T09:00:33.323Z,4.88
2023-05-17T09:03:02.289Z,15.35
2023-05-17T09:05:31.031Z,7.25
2023-05-17T09:08:00.851Z,4.32
2023-05-17T09:10:31.722Z,5.50
2023-05-17T09:13:00.239Z,9.20
2023-05-17T09:15:29.699Z,5.25
2023-05-17T09:17:59.102Z,12.75
2023-05-17T09:20:34.135Z,6.90
2023-05-17T09:23:02.950Z,6.38
2023-05-17T09:25:33.536Z,15.65
2023-05-17T09:30:31.720Z,4.82
2023-05-17T09:33:07.217Z,5.78
2023-05-17T09:35:37.150Z,4.65
2023-05-17T09:38:07.963Z,5.07
2023-05-17T09:40:41.404Z,4.43
2023-05-17T09:43:10.618Z,4.63
2023-05-17T09:45:39.518Z,9.65
2023-05-17T09:48:15.546Z,15.13
2023-05-17T09:50:47.522Z,10.48
2023-05-17T09:53:26.618Z,4.55
2023-05-17T09:55:58.611Z,4.55
2023-05-17T09:58:28.846Z,17.27
2023-05-17T10:01:01.737Z,18.27
2023-05-17T10:03:33.366Z,35.67
2023-05-17T10:06:03.881Z,7.20
2023-05-17T10:08:33.802Z,6.70
2023-05-17T10:11:07.621Z,5.80
2023-05-17T10:13:41.633Z,6.45
2023-05-17T10:16:10.888Z,6.03
2023-05-17T10:18:42.058Z,6.07
2023-05-17T10:21:10.985Z,11.02
2023-05-17T10:23:42.197Z,5.40
2023-05-17T10:26:12.035Z,4.70
2023-05-17T10:28:41.561Z,7.38
2023-05-17T10:31:10.099Z,10.02
2023-05-17T10:33:39.532Z,5.80
2023-05-17T10:36:08.968Z,4.70
2023-05-17T10:38:42.500Z,4.75
2023-05-17T10:41:13.856Z,5.03
2023-05-17T10:43:43.905Z,5.07
2023-05-17T10:46:17.142Z,4.90
2023-05-17T10:48:46.854Z,6.30
2023-05-17T10:51:18.729Z,6.20
2023-05-17T10:54:05.197Z,4.63
2023-05-17T10:56:36.042Z,4.50
2023-05-17T10:59:18.740Z,4.60
2023-05-17T11:01:52.593Z,4.30
2023-05-17T11:04:26.617Z,4.28
2023-05-17T11:07:16.740Z,4.35
2023-05-17T11:09:45.425Z,4.60
2023-05-17T11:12:17.280Z,4.60
2023-05-17T11:14:53.569Z,4.57
2023-05-17T11:17:27.549Z,4.88
2023-05-17T11:20:13.466Z,4.88
2023-05-17T11:22:43.768Z,5.25
2023-05-17T11:25:14.279Z,5.50
2023-05-17T11:27:47.722Z,4.72
2023-05-17T11:30:20.718Z,4.50
2023-05-17T11:32:51.425Z,4.40
2023-05-17T11:37:54.034Z,7.28
2023-05-17T11:40:29.285Z,10.85
2023-05-17T11:43:23.971Z,4.82
2023-05-17T11:45:53.914Z,4.47
2023-05-17T11:48:24.380Z,4.75
2023-05-17T11:50:58.903Z,4.60
2023-05-17T11:53:32.235Z,4.85
2023-05-17T11:56:05.094Z,4.72
2023-05-17T11:58:35.984Z,4.80
2023-05-17T12:01:04.785Z,4.85
2023-05-17T12:03:35.011Z,4.93
2023-05-17T12:06:06.047Z,5.72
2023-05-17T12:08:35.730Z,5.30
2023-05-17T12:11:05.532Z,5.53
2023-05-17T12:13:36.919Z,5.07
2023-05-17T12:16:10.890Z,4.82
2023-05-17T12:18:41.059Z,5.38
2023-05-17T12:21:14.355Z,5.18
2023-05-17T12:23:44.334Z,8.15
2023-05-17T12:26:14.394Z,7.65
2023-05-17T12:28:46.321Z,6.22
2023-05-17T12:31:19.449Z,5.38
2023-05-17T12:33:50.802Z,5.97
2023-05-17T12:36:19.743Z,5.65
2023-05-17T12:38:48.931Z,22.10
2023-05-17T12:41:17.669Z,13.43
2023-05-17T12:43:47.737Z,9.90
2023-05-17T12:46:19.158Z,10.10
2023-05-17T12:48:49.020Z,8.75
2023-05-17T12:51:18.823Z,8.32
2023-05-17T12:53:51.966Z,5.72
2023-05-17T12:56:22.752Z,24.98
2023-05-17T12:59:12.473Z,12.43
2023-05-17T13:01:43.513Z,6.70
2023-05-17T13:04:12.895Z,5.57
2023-05-17T13:06:49.225Z,5.93
2023-05-17T13:09:19.415Z,6.38
2023-05-17T13:11:52.541Z,6.03
2023-05-17T13:14:45.297Z,6.40
2023-05-17T13:17:20.321Z,5.75
2023-05-17T13:19:49.272Z,5.88
2023-05-17T13:22:17.776Z,5.85
2023-05-17T13:24:46.462Z,5.80
2023-05-17T13:27:14.852Z,6.15
2023-05-17T13:29:45.162Z,6.22
2023-05-17T13:34:42.912Z,5.88
2023-05-17T13:37:12.879Z,5.80
2023-05-17T13:39:42.156Z,5.80
2023-05-17T13:42:11.057Z,5.45
2023-05-17T13:44:39.903Z,5.43
2023-05-17T13:47:09.825Z,13.60
2023-05-17T13:49:38.185Z,5.88
2023-05-17T13:52:08.897Z,5.45
2023-05-17T13:54:38.169Z,5.80
2023-05-17T13:57:07.811Z,5.03
2023-05-17T13:59:36.662Z,6.50
2023-05-17T14:02:05.378Z,6.28
2023-05-17T14:04:35.334Z,6.07
2023-05-17T14:07:05.005Z,5.90
2023-05-17T14:09:34.493Z,5.40
2023-05-17T14:12:03.769Z,5.30
2023-05-17T14:14:32.413Z,5.15
2023-05-17T14:17:01.520Z,5.47
2023-05-17T14:19:30.477Z,6.07
2023-05-17T14:22:00.442Z,5.50
2023-05-17T14:24:29.744Z,5.85
2023-05-17T14:26:58.575Z,5.75
2023-05-17T14:29:27.645Z,5.43
2023-05-17T14:31:55.899Z,6.20
2023-05-17T14:34:25.098Z,6.30
2023-05-17T14:36:53.563Z,9.00
2023-05-17T14:39:23.523Z,6.10
2023-05-17T14:41:52.164Z,6.03
2023-05-17T14:44:20.725Z,6.45
2023-05-17T14:46:49.075Z,7.50
2023-05-17T14:49:17.890Z,7.03
2023-05-17T14:51:46.463Z,6.63
2023-05-17T14:54:15.304Z,5.93
2023-05-17T14:56:45.465Z,5.97
2023-05-17T14:59:14.094Z,6.35
2023-05-17T15:01:42.476Z,6.20
2023-05-17T15:04:13.288Z,6.30
2023-05-17T15:06:42.450Z,6.07
2023-05-17T15:09:13.428Z,6.70
2023-05-17T15:11:42.008Z,18.65
2023-05-17T15:14:11.717Z,6.68
2023-05-17T15:16:40.827Z,7.68
2023-05-17T15:19:09.731Z,7.13
2023-05-17T15:21:38.360Z,8.60
2023-05-17T15:24:07.374Z,11.90
2023-05-17T15:26:36.634Z,5.75
2023-05-17T15:29:05.946Z,7.60
2023-05-17T15:31:36.222Z,8.45
2023-05-17T15:34:04.921Z,7.72
2023-05-17T15:36:37.710Z,6.55
2023-05-17T15:39:11.591Z,6.15
2023-05-17T15:41:45.749Z,6.25
2023-05-17T15:44:21.501Z,6.10
2023-05-17T15:46:52.056Z,7.10
2023-05-17T15:49:20.614Z,6.65
2023-05-17T15:51:49.965Z,6.00
2023-05-17T15:54:18.345Z,6.43
2023-05-17T15:56:47.530Z,6.38
2023-05-17T15:59:16.109Z,6.15
2023-05-17T16:01:46.358Z,6.53
2023-05-17T16:04:16.223Z,6.25
2023-05-17T16:06:44.761Z,6.65
2023-05-17T16:09:14.734Z,6.28
2023-05-17T16:11:43.541Z,8.43
2023-05-17T16:14:12.485Z,12.77
2023-05-17T16:16:41.625Z,9.25
2023-05-17T16:19:10.847Z,10.32
2023-05-17T16:21:40.687Z,7.25
2023-05-17T16:24:09.945Z,6.72
2023-05-17T16:26:39.530Z,7.30
2023-05-17T16:29:07.960Z,7.07
2023-05-17T16:31:36.590Z,11.85
2023-05-17T16:34:05.457Z,14.57
2023-05-17T16:36:33.904Z,7.82
2023-05-17T16:39:05.376Z,9.32
2023-05-17T16:41:35.813Z,22.45
2023-05-17T16:44:04.143Z,7.18
2023-05-17T16:46:32.846Z,7.75
2023-05-17T16:49:02.118Z,7.32
2023-05-17T16:51:31.352Z,7.22
2023-05-17T16:53:59.748Z,7.38
2023-05-17T16:56:29.617Z,7.13
2023-05-17T16:58:58.021Z,7.07
2023-05-17T17:01:27.274Z,6.90
2023-05-17T17:03:57.166Z,6.85
2023-05-17T17:06:29.644Z,6.88
2023-05-17T17:09:01.838Z,6.72
2023-05-17T17:11:31.662Z,6.93
2023-05-17T17:14:02.348Z,6.53
2023-05-17T17:16:31.303Z,7.15
2023-05-17T17:19:00.214Z,7.50
2023-05-17T17:21:28.595Z,8.45
2023-05-17T17:23:58.099Z,7.50
2023-05-17T17:26:26.577Z,7.50
2023-05-17T17:28:56.379Z,6.78
2023-05-17T17:31:26.467Z,6.68
2023-05-17T17:33:55.079Z,6.82
2023-05-17T17:36:24.421Z,6.90
2023-05-17T17:38:52.979Z,6.82
2023-05-17T17:41:21.998Z,6.10
2023-05-17T17:43:51.565Z,9.70
2023-05-17T17:46:21.763Z,10.57
2023-05-17T17:48:50.269Z,7.07
2023-05-17T17:51:18.571Z,6.15
2023-05-17T17:53:48.833Z,5.90
2023-05-17T17:58:46.464Z,5.80
2023-05-17T18:01:15.411Z,6.25
2023-05-17T18:03:45.199Z,5.70
2023-05-17T18:06:14.237Z,6.47
2023-05-17T18:08:42.535Z,11.10
2023-05-17T18:11:11.184Z,7.05
2023-05-17T18:13:39.556Z,8.88
2023-05-17T18:16:08.401Z,7.40
2023-05-17T18:18:40.498Z,8.80
2023-05-17T18:21:11.768Z,5.82
2023-05-17T18:23:40.087Z,5.68
2023-05-17T18:26:08.754Z,15.73
2023-05-17T18:28:42.787Z,22.58
2023-05-17T18:31:11.855Z,22.45
2023-05-17T18:33:40.241Z,15.88
2023-05-17T18:36:10.170Z,6.72
2023-05-17T18:38:38.893Z,6.03
2023-05-17T18:41:07.376Z,6.43
2023-05-17T18:43:36.297Z,6.30
2023-05-17T18:46:04.923Z,6.25
2023-05-17T18:48:35.993Z,5.72
2023-05-17T18:51:04.643Z,5.88
2023-05-17T18:53:36.256Z,5.80
2023-05-17T18:56:04.625Z,6.20
2023-05-17T18:58:33.534Z,6.10
2023-05-17T19:01:02.634Z,5.80
2023-05-17T19:03:32.101Z,6.10
2023-05-17T19:06:00.740Z,5.82
2023-05-17T19:08:29.719Z,5.30
2023-05-17T19:11:01.235Z,5.70
2023-05-17T19:13:29.578Z,6.10
2023-05-17T19:15:58.077Z,6.43
2023-05-17T19:18:26.540Z,5.90
2023-05-17T19:20:55.262Z,5.85
2023-05-17T19:23:23.840Z,5.70
2023-05-17T19:25:55.976Z,5.40
2023-05-17T19:28:25.905Z,5.68
2023-05-17T19:30:54.793Z,5.57
2023-05-17T19:33:23.096Z,8.20
2023-05-17T19:35:52.270Z,11.35
2023-05-17T19:38:20.566Z,9.07
2023-05-17T19:40:50.398Z,7.03
2023-05-17T19:43:18.883Z,6.22
2023-05-17T19:45:48.796Z,6.22
2023-05-17T19:48:17.400Z,6.15
2023-05-17T19:50:46.301Z,6.15
2023-05-17T19:53:14.808Z,8.07
2023-05-17T19:55:43.356Z,8.68
2023-05-17T19:58:12.092Z,11.05
2023-05-17T20:00:40.581Z,11.57
2023-05-17T20:03:10.542Z,8.70
2023-05-17T20:05:39.276Z,6.60
2023-05-17T20:08:09.818Z,5.97
2023-05-17T20:13:06.658Z,5.78
2023-05-17T20:15:35.292Z,6.15
2023-05-17T20:18:05.232Z,6.00
2023-05-17T20:20:35.752Z,5.80
2023-05-17T20:23:04.262Z,6.65
2023-05-17T20:25:32.912Z,6.72
2023-05-17T20:28:01.305Z,6.10
2023-05-17T20:30:30.523Z,6.93
2023-05-17T20:32:59.067Z,5.97
2023-05-17T20:35:27.564Z,5.82
2023-05-17T20:37:57.866Z,5.90
2023-05-17T20:40:26.266Z,6.13
2023-05-17T20:42:54.805Z,6.40
2023-05-17T20:45:23.283Z,5.75
2023-05-17T20:47:52.590Z,10.00
2023-05-17T20:50:21.648Z,7.68
2023-05-17T20:52:50.641Z,8.02
2023-05-17T20:55:20.586Z,7.03
2023-05-17T20:57:49.236Z,5.93
2023-05-17T21:00:18.830Z,6.28
2023-05-17T21:02:47.318Z,6.18
2023-05-17T21:05:16.515Z,6.55
2023-05-17T21:07:46.753Z,5.88
2023-05-17T21:10:15.610Z,11.40
2023-05-17T21:12:45.363Z,25.27
2023-05-17T21:15:17.326Z,20.08
2023-05-17T21:17:46.110Z,14.40
2023-05-17T21:20:14.968Z,18.55
2023-05-17T21:22:44.377Z,10.73
2023-05-17T21:25:12.818Z,8.75
2023-05-17T21:27:41.421Z,6.80
2023-05-17T21:30:12.235Z,6.68
2023-05-17T21:32:41.285Z,6.45
2023-05-17T21:35:09.992Z,6.90
2023-05-17T21:37:40.113Z,6.70
2023-05-17T21:40:09.558Z,6.80
2023-05-17T21:42:38.188Z,7.50
2023-05-17T21:45:07.854Z,7.55
2023-05-17T21:47:37.947Z,6.47
2023-05-17T21:50:07.079Z,6.50
2023-05-17T21:52:35.845Z,6.50
2023-05-17T21:55:04.429Z,6.40
2023-05-17T21:57:36.149Z,6.93
2023-05-17T22:00:05.874Z,6.50
2023-05-17T22:02:37.532Z,6.60
2023-05-17T22:05:07.120Z,6.10
2023-05-17T22:07:35.941Z,6.00
2023-05-17T22:10:07.283Z,6.07
2023-05-17T22:12:38.439Z,6.10
2023-05-17T22:15:08.055Z,6.80
2023-05-17T22:17:47.832Z,6.57
2023-05-17T22:20:23.473Z,6.68
2023-05-17T22:22:54.859Z,6.50
2023-05-17T22:25:23.234Z,6.63
2023-05-17T22:27:51.676Z,6.53
2023-05-17T22:30:20.003Z,6.53
2023-05-17T22:32:49.878Z,6.43
2023-05-17T22:35:18.299Z,6.67
2023-05-17T22:37:46.583Z,6.38
2023-05-17T22:40:15.389Z,6.97
2023-05-17T22:42:44.842Z,7.00
2023-05-17T22:45:14.637Z,8.67
2023-05-17T22:47:43.550Z,10.07
2023-05-17T22:50:15.917Z,8.55
2023-05-17T22:52:46.460Z,7.88
2023-05-17T22:55:15.079Z,8.32
2023-05-17T22:57:43.438Z,7.55
2023-05-17T23:00:15.166Z,7.97
2023-05-17T23:02:44.211Z,7.57
2023-05-17T23:05:13.971Z,10.90
2023-05-17T23:07:43.420Z,12.15
2023-05-17T23:10:12.718Z,12.38
2023-05-17T23:12:41.112Z,9.38
2023-05-17T23:15:10.790Z,8.52
2023-05-17T23:17:41.422Z,8.05
2023-05-17T23:20:12.270Z,8.30
2023-05-17T23:22:41.994Z,7.82
2023-05-17T23:25:10.958Z,8.33
2023-05-17T23:27:39.729Z,23.52
2023-05-17T23:30:09.393Z,42.33
2023-05-17T23:32:37.877Z,24.43
2023-05-17T23:35:07.212Z,27.25
2023-05-17T23:37:35.782Z,68.90
2023-05-17T23:40:06.932Z,36.13
2023-05-17T23:42:35.854Z,13.25
2023-05-17T23:45:04.544Z,8.65
2023-05-17T23:47:33.634Z,7.88
2023-05-17T23:50:02.845Z,8.13
2023-05-17T23:52:32.904Z,7.32
2023-05-17T23:55:01.511Z,7.10
